Terminal Aerodrome Forecast
Issued by NWS

Home | Current Version | Previous Version | Text Only | Print | Product List | Glossary On
Versions: 1 2 3 4 5 6 7 8 9 10 11 12 13 14 15 16 17 18 19 20
852
FTUS46 KLOX 291518 AAC
TAFOXR
TAF AMD
KOXR 291518Z 2915/3012 VRB03KT P6SM SCT015 OVC023
      TEMPO 2915/2917 BKN015
     FM291700 25008KT P6SM BKN025
     FM292000 25012KT P6SM SCT030
     FM300300 VRB05KT P6SM BKN020
     FM300500 VRB05KT P6SM OVC009=

USA.gov is the U.S. government's official web portal to all federal, state and local government web resources and services.